sensor_id;sensor_type;location;lat;lon;timestamp;P1;durP1;ratioP1;P2;durP2;ratioP2
18364;SDS011;9309;52.126;11.616;2023-08-07T02:42:19;3.73;;;3.43;;
18364;SDS011;9309;52.126;11.616;2023-08-07T02:44:46;5.17;;;3.90;;
18364;SDS011;9309;52.126;11.616;2023-08-07T02:47:13;6.30;;;3.57;;
18364;SDS011;9309;52.126;11.616;2023-08-07T02:49:41;5.43;;;3.37;;
18364;SDS011;9309;52.126;11.616;2023-08-07T02:52:08;3.97;;;3.60;;
18364;SDS011;9309;52.126;11.616;2023-08-07T02:54:35;3.40;;;3.10;;
18364;SDS011;9309;52.126;11.616;2023-08-07T03:21:30;3.00;;;2.80;;
18364;SDS011;9309;52.126;11.616;2023-08-07T04:30:13;3.23;;;2.90;;
18364;SDS011;9309;52.126;11.616;2023-08-07T04:35:08;4.70;;;3.60;;
18364;SDS011;9309;52.126;11.616;2023-08-07T04:37:35;3.43;;;3.13;;
18364;SDS011;9309;52.126;11.616;2023-08-07T04:40:02;3.63;;;3.27;;
18364;SDS011;9309;52.126;11.616;2023-08-07T04:42:30;6.10;;;3.57;;
18364;SDS011;9309;52.126;11.616;2023-08-07T08:28:03;1.37;;;1.37;;
18364;SDS011;9309;52.126;11.616;2023-08-07T08:30:30;1.53;;;1.53;;
18364;SDS011;9309;52.126;11.616;2023-08-07T08:32:58;2.10;;;2.00;;
18364;SDS011;9309;52.126;11.616;2023-08-07T08:35:25;1.27;;;1.27;;
18364;SDS011;9309;52.126;11.616;2023-08-07T08:37:52;1.50;;;1.50;;
18364;SDS011;9309;52.126;11.616;2023-08-07T08:40:19;1.40;;;1.40;;
18364;SDS011;9309;52.126;11.616;2023-08-07T08:42:47;1.40;;;1.40;;
18364;SDS011;9309;52.126;11.616;2023-08-07T10:51:07;1.00;;;1.00;;
18364;SDS011;9309;52.126;11.616;2023-08-07T10:53:34;2.40;;;1.17;;
18364;SDS011;9309;52.126;11.616;2023-08-07T10:56:02;1.07;;;1.07;;
18364;SDS011;9309;52.126;11.616;2023-08-07T10:58:30;1.20;;;1.20;;
18364;SDS011;9309;52.126;11.616;2023-08-07T11:04:07;1.87;;;1.80;;
18364;SDS011;9309;52.126;11.616;2023-08-07T11:06:37;1.10;;;1.10;;
18364;SDS011;9309;52.126;11.616;2023-08-07T11:09:05;1.23;;;1.23;;
18364;SDS011;9309;52.126;11.616;2023-08-07T11:11:34;2.80;;;1.40;;
18364;SDS011;9309;52.126;11.616;2023-08-07T11:14:04;1.27;;;1.27;;
18364;SDS011;9309;52.126;11.616;2023-08-07T11:16:32;3.30;;;1.60;;
18364;SDS011;9309;52.126;11.616;2023-08-07T11:18:59;3.70;;;1.23;;
18364;SDS011;9309;52.126;11.616;2023-08-07T11:21:26;1.20;;;1.20;;
18364;SDS011;9309;52.126;11.616;2023-08-07T11:23:54;1.40;;;1.30;;
18364;SDS011;9309;52.126;11.616;2023-08-07T11:26:21;1.90;;;1.17;;
18364;SDS011;9309;52.126;11.616;2023-08-07T11:28:49;1.30;;;1.30;;
18364;SDS011;9309;52.126;11.616;2023-08-07T11:31:16;3.20;;;1.27;;
18364;SDS011;9309;52.126;11.616;2023-08-07T11:33:43;2.37;;;1.03;;
18364;SDS011;9309;52.126;11.616;2023-08-07T11:36:10;4.63;;;1.13;;
18364;SDS011;9309;52.126;11.616;2023-08-07T11:38:38;1.00;;;1.00;;
18364;SDS011;9309;52.126;11.616;2023-08-07T11:41:10;1.00;;;1.00;;
18364;SDS011;9309;52.126;11.616;2023-08-07T11:43:37;1.40;;;1.40;;
18364;SDS011;9309;52.126;11.616;2023-08-07T11:46:07;1.45;;;0.95;;
18364;SDS011;9309;52.126;11.616;2023-08-07T11:48:35;1.75;;;1.10;;
18364;SDS011;9309;52.126;11.616;2023-08-07T11:51:04;0.93;;;0.93;;
18364;SDS011;9309;52.126;11.616;2023-08-07T12:13:24;1.60;;;1.33;;
18364;SDS011;9309;52.126;11.616;2023-08-07T12:15:54;3.83;;;1.13;;
18364;SDS011;9309;52.126;11.616;2023-08-07T12:18:24;2.03;;;1.57;;
18364;SDS011;9309;52.126;11.616;2023-08-07T12:20:54;1.37;;;1.37;;
18364;SDS011;9309;52.126;11.616;2023-08-07T12:23:24;1.77;;;1.53;;
18364;SDS011;9309;52.126;11.616;2023-08-07T12:25:51;3.80;;;1.60;;
18364;SDS011;9309;52.126;11.616;2023-08-07T12:28:18;1.10;;;1.10;;
18364;SDS011;9309;52.126;11.616;2023-08-07T12:30:46;1.40;;;1.30;;
18364;SDS011;9309;52.126;11.616;2023-08-07T12:33:15;0.97;;;0.97;;
18364;SDS011;9309;52.126;11.616;2023-08-07T12:35:42;1.10;;;1.10;;
18364;SDS011;9309;52.126;11.616;2023-08-07T12:38:09;2.83;;;1.03;;
18364;SDS011;9309;52.126;11.616;2023-08-07T12:40:39;1.27;;;1.00;;
18364;SDS011;9309;52.126;11.616;2023-08-07T12:43:06;2.77;;;0.97;;
18364;SDS011;9309;52.126;11.616;2023-08-07T12:45:33;1.00;;;1.00;;
18364;SDS011;9309;52.126;11.616;2023-08-07T12:48:00;0.97;;;0.97;;
18364;SDS011;9309;52.126;11.616;2023-08-07T12:50:29;1.83;;;1.73;;
18364;SDS011;9309;52.126;11.616;2023-08-07T12:52:56;1.17;;;1.17;;
18364;SDS011;9309;52.126;11.616;2023-08-07T12:55:23;0.70;;;0.70;;
18364;SDS011;9309;52.126;11.616;2023-08-07T12:57:52;2.37;;;0.93;;
18364;SDS011;9309;52.126;11.616;2023-08-07T13:00:19;2.17;;;1.07;;
18364;SDS011;9309;52.126;11.616;2023-08-07T13:02:47;6.10;;;1.73;;
18364;SDS011;9309;52.126;11.616;2023-08-07T13:05:15;0.87;;;0.87;;
18364;SDS011;9309;52.126;11.616;2023-08-07T13:07:45;1.30;;;1.03;;
18364;SDS011;9309;52.126;11.616;2023-08-07T13:10:13;1.90;;;1.30;;
18364;SDS011;9309;52.126;11.616;2023-08-07T13:12:41;2.63;;;1.37;;
18364;SDS011;9309;52.126;11.616;2023-08-07T13:15:11;1.50;;;1.00;;
18364;SDS011;9309;52.126;11.616;2023-08-07T13:17:39;2.90;;;1.10;;
18364;SDS011;9309;52.126;11.616;2023-08-07T13:20:07;1.93;;;1.77;;
18364;SDS011;9309;52.126;11.616;2023-08-07T13:22:35;1.00;;;1.00;;
18364;SDS011;9309;52.126;11.616;2023-08-07T13:25:04;2.85;;;1.30;;
18364;SDS011;9309;52.126;11.616;2023-08-07T13:27:32;0.80;;;0.80;;
18364;SDS011;9309;52.126;11.616;2023-08-07T13:30:00;1.23;;;1.13;;
18364;SDS011;9309;52.126;11.616;2023-08-07T13:32:28;1.10;;;1.10;;
18364;SDS011;9309;52.126;11.616;2023-08-07T13:34:55;1.00;;;1.00;;
18364;SDS011;9309;52.126;11.616;2023-08-07T13:37:21;1.10;;;1.02;;
18364;SDS011;9309;52.126;11.616;2023-08-07T13:39:48;2.00;;;0.85;;
18364;SDS011;9309;52.126;11.616;2023-08-07T13:42:18;0.88;;;0.88;;
18364;SDS011;9309;52.126;11.616;2023-08-07T13:44:45;1.10;;;0.90;;
18364;SDS011;9309;52.126;11.616;2023-08-07T13:47:12;5.60;;;1.10;;
18364;SDS011;9309;52.126;11.616;2023-08-07T13:49:39;1.23;;;0.80;;
18364;SDS011;9309;52.126;11.616;2023-08-07T13:52:06;2.67;;;1.45;;
18364;SDS011;9309;52.126;11.616;2023-08-07T13:54:33;0.88;;;0.88;;
18364;SDS011;9309;52.126;11.616;2023-08-07T13:57:00;0.70;;;0.70;;
18364;SDS011;9309;52.126;11.616;2023-08-07T13:59:28;1.67;;;0.90;;
18364;SDS011;9309;52.126;11.616;2023-08-07T14:01:55;1.03;;;1.03;;
18364;SDS011;9309;52.126;11.616;2023-08-07T14:04:22;1.20;;;1.10;;
18364;SDS011;9309;52.126;11.616;2023-08-07T14:06:49;8.33;;;1.00;;
18364;SDS011;9309;52.126;11.616;2023-08-07T14:09:16;0.90;;;0.90;;
18364;SDS011;9309;52.126;11.616;2023-08-07T14:11:43;0.60;;;0.60;;
18364;SDS011;9309;52.126;11.616;2023-08-07T14:14:10;0.82;;;0.82;;
18364;SDS011;9309;52.126;11.616;2023-08-07T14:16:38;2.20;;;1.25;;
18364;SDS011;9309;52.126;11.616;2023-08-07T14:19:05;0.75;;;0.75;;
18364;SDS011;9309;52.126;11.616;2023-08-07T14:21:32;0.82;;;0.82;;
18364;SDS011;9309;52.126;11.616;2023-08-07T14:24:00;1.50;;;1.00;;
18364;SDS011;9309;52.126;11.616;2023-08-07T14:26:27;1.00;;;1.00;;
18364;SDS011;9309;52.126;11.616;2023-08-07T14:28:54;3.97;;;0.90;;
18364;SDS011;9309;52.126;11.616;2023-08-07T14:31:21;1.00;;;1.00;;
18364;SDS011;9309;52.126;11.616;2023-08-07T14:33:49;0.90;;;0.90;;
18364;SDS011;9309;52.126;11.616;2023-08-07T14:36:16;1.10;;;0.87;;
18364;SDS011;9309;52.126;11.616;2023-08-07T14:38:43;0.70;;;0.70;;
18364;SDS011;9309;52.126;11.616;2023-08-07T14:41:10;1.10;;;1.07;;
18364;SDS011;9309;52.126;11.616;2023-08-07T14:43:37;1.07;;;1.07;;
18364;SDS011;9309;52.126;11.616;2023-08-07T14:46:03;0.97;;;0.97;;
18364;SDS011;9309;52.126;11.616;2023-08-07T14:48:30;0.93;;;0.93;;
18364;SDS011;9309;52.126;11.616;2023-08-07T14:50:58;1.23;;;1.13;;
18364;SDS011;9309;52.126;11.616;2023-08-07T14:53:25;1.10;;;1.03;;
18364;SDS011;9309;52.126;11.616;2023-08-07T14:55:53;5.20;;;1.30;;
18364;SDS011;9309;52.126;11.616;2023-08-07T14:58:20;3.20;;;1.07;;
18364;SDS011;9309;52.126;11.616;2023-08-07T15:00:47;1.03;;;0.93;;
18364;SDS011;9309;52.126;11.616;2023-08-07T15:03:15;5.73;;;1.30;;
18364;SDS011;9309;52.126;11.616;2023-08-07T15:05:42;1.23;;;1.10;;
18364;SDS011;9309;52.126;11.616;2023-08-07T15:08:10;1.57;;;1.20;;
18364;SDS011;9309;52.126;11.616;2023-08-07T15:10:37;5.80;;;1.50;;
18364;SDS011;9309;52.126;11.616;2023-08-07T15:13:04;1.23;;;1.23;;
18364;SDS011;9309;52.126;11.616;2023-08-07T15:15:32;1.03;;;1.03;;
18364;SDS011;9309;52.126;11.616;2023-08-07T15:17:59;1.20;;;1.13;;
18364;SDS011;9309;52.126;11.616;2023-08-07T15:20:28;2.40;;;1.10;;
18364;SDS011;9309;52.126;11.616;2023-08-07T15:22:55;1.70;;;1.33;;
18364;SDS011;9309;52.126;11.616;2023-08-07T15:25:24;2.80;;;1.23;;
18364;SDS011;9309;52.126;11.616;2023-08-07T15:27:51;1.53;;;1.13;;
18364;SDS011;9309;52.126;11.616;2023-08-07T15:30:19;1.00;;;1.00;;
18364;SDS011;9309;52.126;11.616;2023-08-07T15:32:46;2.57;;;1.03;;
18364;SDS011;9309;52.126;11.616;2023-08-07T15:35:13;4.03;;;1.37;;
18364;SDS011;9309;52.126;11.616;2023-08-07T15:37:40;1.23;;;1.23;;
18364;SDS011;9309;52.126;11.616;2023-08-07T15:40:08;4.47;;;2.23;;
18364;SDS011;9309;52.126;11.616;2023-08-07T15:42:36;3.20;;;1.10;;
18364;SDS011;9309;52.126;11.616;2023-08-07T15:45:04;2.47;;;1.30;;
18364;SDS011;9309;52.126;11.616;2023-08-07T15:47:31;1.57;;;1.13;;
18364;SDS011;9309;52.126;11.616;2023-08-07T15:49:58;1.20;;;1.20;;
18364;SDS011;9309;52.126;11.616;2023-08-07T15:52:25;3.60;;;1.90;;
18364;SDS011;9309;52.126;11.616;2023-08-07T15:54:51;9.93;;;1.90;;
18364;SDS011;9309;52.126;11.616;2023-08-07T15:57:18;1.23;;;1.23;;
18364;SDS011;9309;52.126;11.616;2023-08-07T15:59:47;1.10;;;1.10;;
18364;SDS011;9309;52.126;11.616;2023-08-07T16:02:14;2.30;;;1.10;;
18364;SDS011;9309;52.126;11.616;2023-08-07T16:04:40;2.40;;;1.10;;
18364;SDS011;9309;52.126;11.616;2023-08-07T16:10:54;1.03;;;1.03;;
18364;SDS011;9309;52.126;11.616;2023-08-07T16:13:21;1.30;;;0.97;;
18364;SDS011;9309;52.126;11.616;2023-08-07T16:15:50;1.63;;;1.00;;
18364;SDS011;9309;52.126;11.616;2023-08-07T16:18:16;2.93;;;1.53;;
18364;SDS011;9309;52.126;11.616;2023-08-07T16:20:43;2.93;;;1.80;;
18364;SDS011;9309;52.126;11.616;2023-08-07T16:23:10;2.47;;;1.20;;
18364;SDS011;9309;52.126;11.616;2023-08-07T16:25:37;2.00;;;1.53;;
18364;SDS011;9309;52.126;11.616;2023-08-07T16:28:04;2.90;;;1.53;;
18364;SDS011;9309;52.126;11.616;2023-08-07T16:30:32;1.20;;;1.17;;
18364;SDS011;9309;52.126;11.616;2023-08-07T16:33:00;1.40;;;1.30;;
18364;SDS011;9309;52.126;11.616;2023-08-07T16:35:27;1.00;;;1.00;;
18364;SDS011;9309;52.126;11.616;2023-08-07T16:37:53;5.93;;;1.60;;
18364;SDS011;9309;52.126;11.616;2023-08-07T16:40:21;6.03;;;1.43;;
18364;SDS011;9309;52.126;11.616;2023-08-07T16:42:48;1.00;;;0.87;;
18364;SDS011;9309;52.126;11.616;2023-08-07T16:45:14;3.83;;;2.23;;
18364;SDS011;9309;52.126;11.616;2023-08-07T16:47:41;1.40;;;1.20;;
18364;SDS011;9309;52.126;11.616;2023-08-07T16:50:09;1.37;;;1.37;;
18364;SDS011;9309;52.126;11.616;2023-08-07T16:52:36;1.90;;;1.13;;
18364;SDS011;9309;52.126;11.616;2023-08-07T16:55:03;3.67;;;1.50;;
18364;SDS011;9309;52.126;11.616;2023-08-07T16:57:31;1.70;;;1.30;;
18364;SDS011;9309;52.126;11.616;2023-08-07T16:59:58;0.97;;;0.93;;
18364;SDS011;9309;52.126;11.616;2023-08-07T17:02:25;1.70;;;1.60;;
18364;SDS011;9309;52.126;11.616;2023-08-07T17:04:52;8.13;;;1.37;;
18364;SDS011;9309;52.126;11.616;2023-08-07T17:07:20;1.47;;;1.20;;
18364;SDS011;9309;52.126;11.616;2023-08-07T17:09:46;1.90;;;1.20;;
18364;SDS011;9309;52.126;11.616;2023-08-07T17:12:13;1.40;;;1.30;;
18364;SDS011;9309;52.126;11.616;2023-08-07T17:14:40;2.30;;;1.13;;
18364;SDS011;9309;52.126;11.616;2023-08-07T17:17:07;2.60;;;1.70;;
18364;SDS011;9309;52.126;11.616;2023-08-07T17:19:34;1.60;;;1.20;;
18364;SDS011;9309;52.126;11.616;2023-08-07T17:22:01;2.97;;;1.40;;
18364;SDS011;9309;52.126;11.616;2023-08-07T17:24:30;2.57;;;1.63;;
18364;SDS011;9309;52.126;11.616;2023-08-07T17:26:57;4.60;;;1.37;;
18364;SDS011;9309;52.126;11.616;2023-08-07T17:29:24;1.00;;;1.00;;
18364;SDS011;9309;52.126;11.616;2023-08-07T17:31:51;1.20;;;1.20;;
18364;SDS011;9309;52.126;11.616;2023-08-07T17:34:18;2.03;;;1.03;;
18364;SDS011;9309;52.126;11.616;2023-08-07T17:36:45;0.90;;;0.90;;
18364;SDS011;9309;52.126;11.616;2023-08-07T17:39:12;3.70;;;1.27;;
18364;SDS011;9309;52.126;11.616;2023-08-07T17:41:42;1.47;;;1.00;;
18364;SDS011;9309;52.126;11.616;2023-08-07T17:44:11;2.90;;;1.00;;
18364;SDS011;9309;52.126;11.616;2023-08-07T17:46:38;0.83;;;0.83;;
18364;SDS011;9309;52.126;11.616;2023-08-07T17:49:05;2.33;;;1.10;;
18364;SDS011;9309;52.126;11.616;2023-08-07T17:51:32;4.07;;;0.90;;
18364;SDS011;9309;52.126;11.616;2023-08-07T17:53:59;1.30;;;1.20;;
18364;SDS011;9309;52.126;11.616;2023-08-07T17:56:26;1.43;;;1.00;;
18364;SDS011;9309;52.126;11.616;2023-08-07T17:58:54;2.93;;;1.40;;
18364;SDS011;9309;52.126;11.616;2023-08-07T18:01:21;0.90;;;0.90;;
18364;SDS011;9309;52.126;11.616;2023-08-07T18:03:47;0.83;;;0.83;;
18364;SDS011;9309;52.126;11.616;2023-08-07T18:06:14;3.33;;;1.00;;
18364;SDS011;9309;52.126;11.616;2023-08-07T18:08:41;1.00;;;1.00;;
18364;SDS011;9309;52.126;11.616;2023-08-07T18:11:08;1.10;;;1.00;;
18364;SDS011;9309;52.126;11.616;2023-08-07T18:13:35;1.20;;;1.20;;
18364;SDS011;9309;52.126;11.616;2023-08-07T18:16:03;1.20;;;1.20;;
18364;SDS011;9309;52.126;11.616;2023-08-07T18:18:30;1.20;;;1.20;;
18364;SDS011;9309;52.126;11.616;2023-08-07T18:20:57;0.97;;;0.97;;
18364;SDS011;9309;52.126;11.616;2023-08-07T18:23:24;1.23;;;1.03;;
18364;SDS011;9309;52.126;11.616;2023-08-07T18:25:52;0.87;;;0.87;;
18364;SDS011;9309;52.126;11.616;2023-08-07T18:28:19;1.10;;;1.10;;
18364;SDS011;9309;52.126;11.616;2023-08-07T18:30:45;3.13;;;1.40;;
18364;SDS011;9309;52.126;11.616;2023-08-07T18:33:13;1.10;;;1.10;;
18364;SDS011;9309;52.126;11.616;2023-08-07T18:35:40;1.20;;;1.20;;
18364;SDS011;9309;52.126;11.616;2023-08-07T18:38:07;1.77;;;1.67;;
18364;SDS011;9309;52.126;11.616;2023-08-07T18:40:34;1.27;;;1.27;;
18364;SDS011;9309;52.126;11.616;2023-08-07T18:43:03;1.53;;;1.47;;
18364;SDS011;9309;52.126;11.616;2023-08-07T18:45:30;2.03;;;1.47;;
18364;SDS011;9309;52.126;11.616;2023-08-07T18:47:56;7.20;;;1.20;;
18364;SDS011;9309;52.126;11.616;2023-08-07T18:50:25;1.60;;;1.20;;
18364;SDS011;9309;52.126;11.616;2023-08-07T18:52:51;1.30;;;1.20;;
18364;SDS011;9309;52.126;11.616;2023-08-07T18:55:19;1.40;;;1.40;;
18364;SDS011;9309;52.126;11.616;2023-08-07T18:57:46;1.27;;;1.27;;
18364;SDS011;9309;52.126;11.616;2023-08-07T19:00:13;1.50;;;1.40;;
18364;SDS011;9309;52.126;11.616;2023-08-07T19:05:07;2.53;;;1.30;;
18364;SDS011;9309;52.126;11.616;2023-08-07T19:07:36;1.40;;;1.40;;
18364;SDS011;9309;52.126;11.616;2023-08-07T19:10:02;3.30;;;1.50;;
18364;SDS011;9309;52.126;11.616;2023-08-07T19:12:31;1.30;;;1.20;;
18364;SDS011;9309;52.126;11.616;2023-08-07T19:14:58;1.10;;;1.10;;
18364;SDS011;9309;52.126;11.616;2023-08-07T19:17:25;3.63;;;1.23;;
18364;SDS011;9309;52.126;11.616;2023-08-07T19:19:53;1.50;;;1.50;;
18364;SDS011;9309;52.126;11.616;2023-08-07T19:22:20;1.10;;;1.10;;
18364;SDS011;9309;52.126;11.616;2023-08-07T19:24:49;1.23;;;1.23;;
18364;SDS011;9309;52.126;11.616;2023-08-07T19:27:16;1.90;;;1.70;;
18364;SDS011;9309;52.126;11.616;2023-08-07T19:29:43;1.43;;;1.33;;
18364;SDS011;9309;52.126;11.616;2023-08-07T19:32:10;1.73;;;1.63;;
18364;SDS011;9309;52.126;11.616;2023-08-07T19:34:39;1.67;;;1.30;;
18364;SDS011;9309;52.126;11.616;2023-08-07T19:37:05;1.27;;;1.27;;
18364;SDS011;9309;52.126;11.616;2023-08-07T19:39:32;1.10;;;1.07;;
18364;SDS011;9309;52.126;11.616;2023-08-07T19:42:01;5.10;;;1.50;;
18364;SDS011;9309;52.126;11.616;2023-08-07T19:44:28;4.03;;;1.50;;
18364;SDS011;9309;52.126;11.616;2023-08-07T19:46:55;1.20;;;1.20;;
18364;SDS011;9309;52.126;11.616;2023-08-07T19:49:22;1.90;;;1.80;;
18364;SDS011;9309;52.126;11.616;2023-08-07T19:51:48;1.67;;;1.63;;
18364;SDS011;9309;52.126;11.616;2023-08-07T19:54:15;1.30;;;1.30;;
18364;SDS011;9309;52.126;11.616;2023-08-07T19:56:42;2.70;;;1.60;;
18364;SDS011;9309;52.126;11.616;2023-08-07T19:59:10;4.57;;;1.87;;
18364;SDS011;9309;52.126;11.616;2023-08-07T20:01:37;3.50;;;1.63;;
18364;SDS011;9309;52.126;11.616;2023-08-07T20:04:04;1.67;;;1.40;;
18364;SDS011;9309;52.126;11.616;2023-08-07T20:06:34;2.30;;;1.73;;
18364;SDS011;9309;52.126;11.616;2023-08-07T20:09:01;4.00;;;1.90;;
18364;SDS011;9309;52.126;11.616;2023-08-07T20:11:34;1.67;;;1.57;;
18364;SDS011;9309;52.126;11.616;2023-08-07T20:14:01;1.83;;;1.73;;
18364;SDS011;9309;52.126;11.616;2023-08-07T20:16:29;1.80;;;1.70;;
18364;SDS011;9309;52.126;11.616;2023-08-07T20:18:57;1.73;;;1.73;;
18364;SDS011;9309;52.126;11.616;2023-08-07T20:21:24;1.90;;;1.80;;
18364;SDS011;9309;52.126;11.616;2023-08-07T20:23:51;1.60;;;1.50;;
18364;SDS011;9309;52.126;11.616;2023-08-07T20:26:18;3.40;;;1.50;;
18364;SDS011;9309;52.126;11.616;2023-08-07T20:28:45;6.33;;;1.53;;
18364;SDS011;9309;52.126;11.616;2023-08-07T20:31:12;1.80;;;1.80;;
18364;SDS011;9309;52.126;11.616;2023-08-07T20:33:40;1.60;;;1.60;;
18364;SDS011;9309;52.126;11.616;2023-08-07T20:36:07;1.80;;;1.43;;
18364;SDS011;9309;52.126;11.616;2023-08-07T20:38:34;1.83;;;1.73;;
18364;SDS011;9309;52.126;11.616;2023-08-07T20:41:01;1.63;;;1.53;;
18364;SDS011;9309;52.126;11.616;2023-08-07T20:43:28;2.60;;;2.40;;
18364;SDS011;9309;52.126;11.616;2023-08-07T20:45:55;2.20;;;1.73;;
18364;SDS011;9309;52.126;11.616;2023-08-07T20:48:21;1.87;;;1.67;;
18364;SDS011;9309;52.126;11.616;2023-08-07T20:50:50;9.53;;;2.53;;
18364;SDS011;9309;52.126;11.616;2023-08-07T20:53:17;1.67;;;1.60;;
18364;SDS011;9309;52.126;11.616;2023-08-07T20:55:44;2.03;;;2.00;;
18364;SDS011;9309;52.126;11.616;2023-08-07T20:58:10;1.97;;;1.67;;
18364;SDS011;9309;52.126;11.616;2023-08-07T21:00:37;2.73;;;2.43;;
18364;SDS011;9309;52.126;11.616;2023-08-07T21:03:04;2.10;;;2.00;;
18364;SDS011;9309;52.126;11.616;2023-08-07T21:05:31;7.00;;;1.93;;
18364;SDS011;9309;52.126;11.616;2023-08-07T21:07:59;1.93;;;1.83;;
18364;SDS011;9309;52.126;11.616;2023-08-07T21:10:26;1.63;;;1.60;;
18364;SDS011;9309;52.126;11.616;2023-08-07T21:12:53;3.43;;;1.77;;
18364;SDS011;9309;52.126;11.616;2023-08-07T21:15:20;2.10;;;2.00;;
18364;SDS011;9309;52.126;11.616;2023-08-07T21:17:47;1.97;;;1.87;;
18364;SDS011;9309;52.126;11.616;2023-08-07T21:20:14;3.53;;;1.73;;
18364;SDS011;9309;52.126;11.616;2023-08-07T21:25:09;4.57;;;2.20;;
18364;SDS011;9309;52.126;11.616;2023-08-07T21:27:36;1.70;;;1.60;;
18364;SDS011;9309;52.126;11.616;2023-08-07T21:30:03;1.53;;;1.53;;
18364;SDS011;9309;52.126;11.616;2023-08-07T21:32:30;1.60;;;1.60;;
18364;SDS011;9309;52.126;11.616;2023-08-07T21:34:57;1.87;;;1.70;;
18364;SDS011;9309;52.126;11.616;2023-08-07T21:37:29;2.20;;;2.10;;
18364;SDS011;9309;52.126;11.616;2023-08-07T21:39:56;2.00;;;1.90;;
18364;SDS011;9309;52.126;11.616;2023-08-07T21:42:24;4.00;;;1.70;;
18364;SDS011;9309;52.126;11.616;2023-08-07T21:44:53;1.97;;;1.87;;
18364;SDS011;9309;52.126;11.616;2023-08-07T21:47:20;1.80;;;1.70;;
18364;SDS011;9309;52.126;11.616;2023-08-07T21:49:47;3.60;;;2.20;;
18364;SDS011;9309;52.126;11.616;2023-08-07T21:52:14;6.30;;;1.97;;
18364;SDS011;9309;52.126;11.616;2023-08-07T21:54:41;1.90;;;1.80;;
18364;SDS011;9309;52.126;11.616;2023-08-07T21:57:07;1.87;;;1.60;;
18364;SDS011;9309;52.126;11.616;2023-08-07T21:59:36;1.73;;;1.70;;
18364;SDS011;9309;52.126;11.616;2023-08-07T22:02:03;1.80;;;1.77;;
18364;SDS011;9309;52.126;11.616;2023-08-07T22:04:30;1.80;;;1.70;;
18364;SDS011;9309;52.126;11.616;2023-08-07T22:06:57;1.80;;;1.70;;
18364;SDS011;9309;52.126;11.616;2023-08-07T22:09:24;1.80;;;1.70;;
18364;SDS011;9309;52.126;11.616;2023-08-07T22:11:51;2.67;;;2.20;;
18364;SDS011;9309;52.126;11.616;2023-08-07T22:14:18;2.80;;;2.00;;
18364;SDS011;9309;52.126;11.616;2023-08-07T22:16:46;2.27;;;1.60;;
18364;SDS011;9309;52.126;11.616;2023-08-07T22:19:14;1.83;;;1.57;;
18364;SDS011;9309;52.126;11.616;2023-08-07T22:21:42;1.83;;;1.73;;
18364;SDS011;9309;52.126;11.616;2023-08-07T22:24:09;2.07;;;1.70;;
18364;SDS011;9309;52.126;11.616;2023-08-07T22:26:36;1.87;;;1.80;;
18364;SDS011;9309;52.126;11.616;2023-08-07T22:29:02;1.80;;;1.70;;
18364;SDS011;9309;52.126;11.616;2023-08-07T22:31:29;1.63;;;1.63;;
18364;SDS011;9309;52.126;11.616;2023-08-07T22:33:58;3.07;;;1.80;;
18364;SDS011;9309;52.126;11.616;2023-08-07T22:36:24;1.83;;;1.80;;
18364;SDS011;9309;52.126;11.616;2023-08-07T22:38:51;3.10;;;1.83;;
18364;SDS011;9309;52.126;11.616;2023-08-07T22:41:19;1.67;;;1.57;;
18364;SDS011;9309;52.126;11.616;2023-08-07T22:43:46;1.50;;;1.50;;
18364;SDS011;9309;52.126;11.616;2023-08-07T22:46:13;2.00;;;1.67;;
18364;SDS011;9309;52.126;11.616;2023-08-07T22:48:40;1.70;;;1.60;;
18364;SDS011;9309;52.126;11.616;2023-08-07T22:51:08;3.30;;;1.60;;
18364;SDS011;9309;52.126;11.616;2023-08-07T22:53:34;2.40;;;1.90;;
18364;SDS011;9309;52.126;11.616;2023-08-07T22:56:01;4.80;;;1.60;;
18364;SDS011;9309;52.126;11.616;2023-08-07T22:58:28;5.07;;;1.83;;
18364;SDS011;9309;52.126;11.616;2023-08-07T23:00:55;1.57;;;1.57;;
18364;SDS011;9309;52.126;11.616;2023-08-07T23:03:22;1.53;;;1.47;;
18364;SDS011;9309;52.126;11.616;2023-08-07T23:05:49;1.40;;;1.40;;
18364;SDS011;9309;52.126;11.616;2023-08-07T23:08:17;2.30;;;1.90;;
18364;SDS011;9309;52.126;11.616;2023-08-07T23:10:45;2.77;;;1.60;;
18364;SDS011;9309;52.126;11.616;2023-08-07T23:13:12;1.97;;;1.50;;
18364;SDS011;9309;52.126;11.616;2023-08-07T23:15:38;1.40;;;1.40;;
18364;SDS011;9309;52.126;11.616;2023-08-07T23:18:05;7.77;;;2.80;;
18364;SDS011;9309;52.126;11.616;2023-08-07T23:20:32;1.93;;;1.77;;
18364;SDS011;9309;52.126;11.616;2023-08-07T23:22:59;2.07;;;1.73;;
18364;SDS011;9309;52.126;11.616;2023-08-07T23:25:27;1.77;;;1.67;;
18364;SDS011;9309;52.126;11.616;2023-08-07T23:27:54;1.80;;;1.70;;
18364;SDS011;9309;52.126;11.616;2023-08-07T23:30:21;4.10;;;2.03;;
18364;SDS011;9309;52.126;11.616;2023-08-07T23:32:48;3.70;;;1.87;;
18364;SDS011;9309;52.126;11.616;2023-08-07T23:35:14;2.53;;;2.33;;
18364;SDS011;9309;52.126;11.616;2023-08-07T23:37:41;2.63;;;2.40;;
18364;SDS011;9309;52.126;11.616;2023-08-07T23:40:08;1.60;;;1.50;;
18364;SDS011;9309;52.126;11.616;2023-08-07T23:42:37;1.90;;;1.80;;
18364;SDS011;9309;52.126;11.616;2023-08-07T23:45:04;4.33;;;1.80;;
18364;SDS011;9309;52.126;11.616;2023-08-07T23:47:32;1.60;;;1.60;;
18364;SDS011;9309;52.126;11.616;2023-08-07T23:49:58;2.97;;;1.77;;
18364;SDS011;9309;52.126;11.616;2023-08-07T23:52:25;3.13;;;1.70;;
18364;SDS011;9309;52.126;11.616;2023-08-07T23:54:52;1.50;;;1.50;;
18364;SDS011;9309;52.126;11.616;2023-08-07T23:57:19;1.30;;;1.30;;
18364;SDS011;9309;52.126;11.616;2023-08-07T23:59:47;9.43;;;1.60;;
